Time;durP1;ratioP1;P1;durP2;ratioP2;P2;SDS_P1;SDS_P2;PMS_P1;PMS_P2;Temp;Humidity;BMP_temperature;BMP_pressure;BME280_temperature;BME280_humidity;BME280_pressure;Samples;Min_cycle;Max_cycle;Signal;HPM_P1;HPM_P2
2022/11/25 00:00:27;;;;;;;10.43;5.68;;;4.10;83.00;;;2.26;100.00;96000.75;4964435;28;20746;-65
2022/11/25 00:02:53;;;;;;;13.88;5.97;;;4.10;83.00;;;2.22;100.00;96000.22;4979364;28;20337;-65
2022/11/25 00:05:19;;;;;;;12.70;5.97;;;4.10;83.00;;;2.17;100.00;96005.00;4948181;28;20196;-65
2022/11/25 00:07:44;;;;;;;11.48;5.28;;;4.00;83.20;;;2.16;100.00;96003.38;4964495;28;20321;-65
2022/11/25 00:10:10;;;;;;;12.70;6.13;;;4.00;83.30;;;2.15;100.00;96009.53;4948008;28;20448;-65
2022/11/25 00:12:36;;;;;;;17.58;5.90;;;4.00;83.30;;;2.17;100.00;96011.97;4981742;28;20532;-65
2022/11/25 00:15:02;;;;;;;11.23;5.50;;;4.00;83.20;;;2.13;100.00;96011.44;4947715;28;20355;-65
2022/11/25 00:17:28;;;;;;;12.70;5.63;;;3.90;83.20;;;2.10;100.00;96017.75;4963989;28;20029;-65
2022/11/25 00:19:55;;;;;;;12.60;5.40;;;3.90;83.00;;;2.09;100.00;96017.88;4949244;28;20184;-65
2022/11/25 00:22:20;;;;;;;11.48;5.50;;;3.90;83.00;;;2.07;100.00;96019.78;4964423;28;20095;-65
2022/11/25 00:24:46;;;;;;;12.13;5.88;;;3.90;82.70;;;2.04;100.00;96013.09;4979035;28;20488;-65
2022/11/25 00:27:12;;;;;;;10.98;5.32;;;3.90;82.70;;;2.02;100.00;96009.81;4964417;28;20032;-65
2022/11/25 00:29:38;;;;;;;9.13;5.43;;;3.80;82.50;;;1.98;100.00;96012.81;4963742;28;20343;-65
2022/11/25 00:32:04;;;;;;;12.82;5.50;;;3.80;82.50;;;1.99;100.00;96017.06;4932005;28;20359;-64
2022/11/25 00:34:30;;;;;;;11.02;5.68;;;3.80;82.40;;;1.95;100.00;96015.69;4965744;28;20032;-64
2022/11/25 00:36:56;;;;;;;9.57;4.93;;;3.70;82.40;;;1.92;100.00;96014.19;4967798;28;20295;-65
2022/11/25 00:39:23;;;;;;;11.70;5.50;;;3.70;82.40;;;1.87;100.00;96018.16;4967447;28;20339;-65
2022/11/25 00:44:40;;;;;;;10.38;4.97;;;3.70;82.30;;;1.81;100.00;96017.78;4957500;28;20040;-65
2022/11/25 00:47:17;;;;;;;7.75;4.68;;;3.60;82.40;;;1.79;100.00;96019.66;4971024;28;20025;-65
2022/11/25 00:49:48;;;;;;;10.05;4.57;;;3.60;82.50;;;1.77;100.00;96011.19;4951317;28;20092;-65
2022/11/25 00:52:23;;;;;;;8.30;4.68;;;3.60;82.60;;;1.75;100.00;96018.28;4983925;28;20059;-65
2022/11/25 00:54:49;;;;;;;8.18;4.30;;;3.60;82.40;;;1.71;100.00;96016.94;4951065;28;20040;-64
2022/11/25 00:57:16;;;;;;;7.55;4.47;;;3.60;82.40;;;1.70;100.00;96012.69;4952494;28;20037;-64
2022/11/25 00:59:42;;;;;;;23.85;14.77;;;3.60;82.60;;;1.71;100.00;96005.75;4968667;28;20052;-65
2022/11/25 01:02:09;;;;;;;105.68;62.28;;;3.60;82.80;;;1.70;100.00;96004.94;4966198;28;20363;-65
2022/11/25 01:04:35;;;;;;;37.05;22.58;;;3.60;83.10;;;1.66;100.00;95998.38;4966741;28;20532;-65
2022/11/25 01:07:01;;;;;;;14.63;8.27;;;3.60;82.80;;;1.64;100.00;96002.88;4936537;28;20044;-65
2022/11/25 01:09:27;;;;;;;7.63;4.85;;;3.50;82.50;;;1.62;100.00;96007.38;4950804;28;20363;-65
2022/11/25 01:11:53;;;;;;;9.80;4.75;;;3.50;82.60;;;1.62;100.00;96011.75;4966938;28;20029;-64
2022/11/25 01:14:19;;;;;;;6.32;4.13;;;3.50;82.60;;;1.59;100.00;96018.03;4967202;28;20433;-63
2022/11/25 01:16:45;;;;;;;8.93;4.35;;;3.50;82.70;;;1.58;100.00;96011.19;4950097;28;20055;-63
2022/11/25 01:19:11;;;;;;;7.43;4.03;;;3.40;82.60;;;1.57;100.00;96016.50;5001302;28;20569;-63
2022/11/25 01:21:37;;;;;;;7.47;4.38;;;3.40;82.20;;;1.53;100.00;96008.19;4954569;28;20063;-64
2022/11/25 01:24:04;;;;;;;8.98;3.92;;;3.30;82.10;;;1.50;100.00;96003.28;4938051;28;20029;-63
2022/11/25 01:26:30;;;;;;;7.38;4.28;;;3.40;82.30;;;1.48;100.00;96000.81;4987966;28;20033;-64
2022/11/25 01:28:59;;;;;;;9.70;4.70;;;3.30;82.20;;;1.44;100.00;96003.81;4986352;28;20082;-64
2022/11/25 01:31:28;;;;;;;10.52;3.67;;;3.20;81.90;;;1.41;100.00;95999.72;4969716;28;20559;-64
2022/11/25 01:33:58;;;;;;;7.18;3.83;;;3.20;82.20;;;1.40;100.00;96005.88;4953373;28;20198;-65
2022/11/25 01:36:24;;;;;;;9.70;4.25;;;3.30;82.40;;;1.37;100.00;96007.91;4954105;28;20029;-64
2022/11/25 01:38:52;;;;;;;7.97;4.03;;;3.20;82.40;;;1.33;100.00;96006.53;4952958;28;20389;-64
2022/11/25 01:41:18;;;;;;;7.13;4.13;;;3.20;82.40;;;1.32;100.00;96008.28;4952715;28;20047;-64
2022/11/25 01:44:08;;;;;;;6.45;3.97;;;3.20;82.40;;;1.30;100.00;96011.97;4952707;28;20044;-65
2022/11/25 01:46:55;;;;;;;7.60;3.72;;;3.10;82.30;;;1.28;100.00;96013.88;4954988;28;20143;-64
2022/11/25 01:49:53;;;;;;;8.57;3.92;;;3.10;82.30;;;1.27;100.00;96009.66;4990161;28;20056;-65
2022/11/25 01:52:41;;;;;;;8.15;3.53;;;3.10;82.60;;;1.27;100.00;96009.66;4972630;28;20041;-63
2022/11/25 01:55:29;;;;;;;8.05;3.88;;;3.10;82.70;;;1.26;100.00;96013.19;4986397;28;20355;-64
2022/11/25 01:58:00;;;;;;;8.38;4.50;;;3.10;82.90;;;1.27;100.00;96012.25;4958179;28;20024;-64
2022/11/25 02:00:26;;;;;;;7.25;4.40;;;3.10;82.80;;;1.25;100.00;96016.75;4954699;28;20050;-64
2022/11/25 02:02:52;;;;;;;6.40;3.55;;;3.10;82.60;;;1.23;100.00;96012.53;4977608;28;20064;-63
2022/11/25 02:05:29;;;;;;;5.03;3.50;;;3.10;82.50;;;1.23;100.00;96007.34;4953091;28;20060;-66
2022/11/25 02:07:54;;;;;;;9.38;3.50;;;3.10;82.30;;;1.22;100.00;96003.09;4968247;28;20060;-63
2022/11/25 02:10:26;;;;;;;5.82;3.28;;;3.10;82.30;;;1.22;100.00;95994.53;4950633;28;20358;-65
2022/11/25 02:12:52;;;;;;;6.05;3.70;;;3.10;82.40;;;1.20;100.00;95986.06;4935623;28;20029;-66
2022/11/25 02:15:18;;;;;;;9.23;3.40;;;3.10;82.50;;;1.20;100.00;95991.25;4951630;28;20434;-65
2022/11/25 02:17:44;;;;;;;6.95;3.50;;;3.10;82.70;;;1.21;100.00;95978.16;4949699;28;20040;-65
2022/11/25 02:20:15;;;;;;;5.82;3.60;;;3.10;83.00;;;1.22;100.00;95984.97;4951026;28;20025;-64
2022/11/25 02:22:58;;;;;;;5.95;3.60;;;3.10;83.10;;;1.23;100.00;95985.78;4918080;28;20091;-65
2022/11/25 02:25:30;;;;;;;7.03;3.25;;;3.10;83.00;;;1.25;100.00;95983.06;4983738;28;20029;-65
2022/11/25 02:28:05;;;;;;;6.25;3.30;;;3.20;83.00;;;1.25;100.00;95985.66;4936485;28;20041;-64
2022/11/25 02:30:32;;;;;;;6.38;2.80;;;3.10;82.70;;;1.23;100.00;95996.97;4934260;28;20504;-64
2022/11/25 02:32:59;;;;;;;4.43;2.88;;;3.10;82.40;;;1.22;100.00;95995.34;4934055;28;20260;-63
2022/11/25 02:35:27;;;;;;;7.22;3.20;;;3.10;82.10;;;1.22;100.00;95991.94;4949576;28;20582;-63
2022/11/25 02:37:59;;;;;;;5.22;3.35;;;3.10;82.20;;;1.20;100.00;95986.88;4982344;28;20029;-64
2022/11/25 02:40:26;;;;;;;5.90;3.08;;;3.10;82.20;;;1.20;100.00;95986.88;4935200;28;20091;-64
2022/11/25 02:42:52;;;;;;;7.22;3.78;;;3.20;82.30;;;1.20;100.00;95997.25;4931790;28;20041;-65
2022/11/25 02:45:21;;;;;;;4.60;2.70;;;3.20;82.40;;;1.22;100.00;96000.53;4932654;28;20382;-64
2022/11/25 02:47:47;;;;;;;7.55;2.67;;;3.20;82.40;;;1.21;100.00;95998.88;4932871;28;20043;-64
2022/11/25 02:50:13;;;;;;;5.03;3.03;;;3.10;82.50;;;1.22;100.00;96005.69;4949772;28;20029;-64
2022/11/25 02:52:39;;;;;;;3.80;2.40;;;3.10;82.70;;;1.26;100.00;95997.66;4933450;28;20339;-64
2022/11/25 02:55:05;;;;;;;5.05;2.50;;;3.20;82.50;;;1.26;100.00;95997.66;4916357;28;20189;-64
2022/11/25 02:57:31;;;;;;;6.35;2.70;;;3.20;82.50;;;1.27;100.00;96001.88;4948550;28;20044;-64
2022/11/25 02:59:57;;;;;;;4.70;2.50;;;3.20;82.40;;;1.27;100.00;95991.53;4950795;28;20048;-64
2022/11/25 03:02:23;;;;;;;5.40;2.65;;;3.20;82.40;;;1.27;100.00;95994.13;4948221;28;20288;-65
2022/11/25 03:04:49;;;;;;;4.22;2.65;;;3.20;82.30;;;1.25;100.00;95999.44;4948887;28;20033;-64
2022/11/25 03:07:15;;;;;;;4.80;2.72;;;3.20;82.40;;;1.27;100.00;95997.53;4964891;28;20029;-64
2022/11/25 03:09:42;;;;;;;5.88;2.78;;;3.20;82.50;;;1.28;100.00;95993.16;4949457;23;20317;-68
2022/11/25 03:12:20;;;;;;;4.15;2.80;;;3.20;82.30;;;1.27;100.00;95986.34;4888382;28;20420;-68
2022/11/25 03:14:47;;;;;;;4.50;2.60;;;3.20;82.40;;;1.28;100.00;95986.19;4920194;28;20704;-68
2022/11/25 03:17:13;;;;;;;5.22;2.88;;;3.20;82.40;;;1.28;100.00;95990.56;4912740;28;20236;-67
2022/11/25 03:19:39;;;;;;;5.53;2.50;;;3.20;82.60;;;1.29;100.00;95990.44;4891043;28;20570;-67
2022/11/25 03:22:05;;;;;;;5.25;3.10;;;3.20;82.60;;;1.30;100.00;95986.06;4869995;28;20424;-67
2022/11/25 03:24:32;;;;;;;4.72;2.83;;;3.20;82.50;;;1.30;100.00;95986.06;4868465;28;20436;-67
2022/11/25 03:26:58;;;;;;;3.88;2.65;;;3.20;82.30;;;1.30;100.00;95996.44;4866334;28;20562;-67
2022/11/25 03:29:24;;;;;;;4.97;2.58;;;3.20;82.10;;;1.30;100.00;95991.25;4865461;28;20542;-67
2022/11/25 03:31:50;;;;;;;4.15;2.20;;;3.20;82.20;;;1.29;100.00;95993.03;4865393;28;20333;-67
2022/11/25 03:34:16;;;;;;;5.22;2.58;;;3.20;82.30;;;1.27;100.00;95991.53;4864544;28;20407;-67
2022/11/25 03:36:42;;;;;;;4.93;2.47;;;3.20;82.30;;;1.27;100.00;95997.53;4870403;28;20713;-67
2022/11/25 03:39:09;;;;;;;4.88;2.63;;;3.20;82.30;;;1.27;100.00;96001.88;4868398;28;20659;-67
2022/11/25 03:41:34;;;;;;;4.47;2.30;;;3.30;82.30;;;1.26;100.00;95995.88;4864024;28;20603;-67
2022/11/25 03:44:01;;;;;;;63.20;35.40;;;3.20;82.40;;;1.27;100.00;95994.13;4883442;28;20364;-67
2022/11/25 03:46:27;;;;;;;46.47;29.15;;;3.20;82.40;;;1.25;100.00;95989.06;4895480;28;20509;-69
2022/11/25 03:48:53;;;;;;;31.33;20.17;;;3.20;82.50;;;1.21;100.00;95988.53;4898056;28;20054;-69
2022/11/25 03:51:19;;;;;;;9.85;6.00;;;3.20;82.50;;;1.26;100.00;96000.25;4901134;28;20370;-68
2022/11/25 03:53:45;;;;;;;6.25;3.10;;;3.20;82.60;;;1.27;100.00;95996.69;4901484;28;20378;-72
2022/11/25 03:56:11;;;;;;;6.32;2.72;;;3.20;82.50;;;1.27;100.00;96001.88;4894954;28;20208;-68
2022/11/25 03:58:37;;;;;;;7.55;2.72;;;3.20;82.40;;;1.25;100.00;95999.44;4906835;28;20398;-69
2022/11/25 04:01:03;;;;;;;4.22;2.65;;;3.30;82.20;;;1.27;100.00;96004.47;4958444;28;20475;-66
2022/11/25 04:03:29;;;;;;;4.47;2.22;;;3.20;82.20;;;1.27;100.00;96005.28;4958812;28;20042;-67
2022/11/25 04:05:55;;;;;;;5.35;2.30;;;3.20;82.00;;;1.28;100.00;96013.88;4945583;28;20638;-67
2022/11/25 04:08:21;;;;;;;17.58;10.55;;;3.20;81.90;;;1.29;100.00;96015.53;4947372;28;20034;-67
2022/11/25 04:10:50;;;;;;;19.35;11.60;;;3.20;82.10;;;1.25;100.00;96011.56;4951111;28;20100;-67
2022/11/25 04:13:16;;;;;;;30.08;19.05;;;3.20;81.90;;;1.24;100.00;96010.75;4962269;28;20034;-67
2022/11/25 04:15:46;;;;;;;24.85;15.32;;;3.20;82.20;;;1.24;100.00;96008.16;4964263;28;20184;-66
2022/11/25 04:18:13;;;;;;;7.88;4.85;;;3.20;82.10;;;1.22;100.00;96020.44;4945923;28;20041;-66
2022/11/25 04:20:39;;;;;;;17.05;10.00;;;3.20;82.00;;;1.23;100.00;96017.69;4961093;28;20064;-66
2022/11/25 04:23:05;;;;;;;56.67;33.17;;;3.20;82.20;;;1.22;100.00;96016.06;4963410;28;20030;-67
2022/11/25 04:25:32;;;;;;;15.23;9.85;;;3.20;82.40;;;1.19;100.00;96018.09;4930292;28;20042;-66
2022/11/25 04:27:58;;;;;;;7.95;4.03;;;3.20;82.00;;;1.18;100.00;96022.47;4961993;28;20627;-66
2022/11/25 04:30:24;;;;;;;7.07;3.00;;;3.10;82.00;;;1.19;100.00;96016.34;4961443;28;20046;-66
2022/11/25 04:32:50;;;;;;;5.45;2.40;;;3.10;82.10;;;1.20;100.00;96017.97;4960810;28;20127;-66
2022/11/25 04:35:16;;;;;;;4.80;2.40;;;3.20;82.20;;;1.19;100.00;96021.53;4964775;28;20042;-65
2022/11/25 04:37:42;;;;;;;4.38;2.30;;;3.10;82.20;;;1.15;100.00;96014.97;4946659;28;20331;-66
2022/11/25 04:40:08;;;;;;;3.75;2.10;;;3.20;82.30;;;1.21;100.00;96035.16;4944967;28;20304;-66
2022/11/25 04:42:35;;;;;;;6.50;3.40;;;3.20;82.10;;;1.21;100.00;96034.34;4949570;28;20133;-66
2022/11/25 04:45:05;;;;;;;21.20;13.02;;;3.20;82.20;;;1.21;100.00;96021.38;4963264;28;20029;-67
2022/11/25 04:47:31;;;;;;;17.73;12.00;;;3.20;82.30;;;1.22;100.00;96016.06;4950340;28;20026;-66
2022/11/25 04:49:57;;;;;;;5.13;3.85;;;3.20;82.70;;;1.21;100.00;96014.44;4951421;28;20317;-67
2022/11/25 04:52:23;;;;;;;4.63;2.55;;;3.20;82.30;;;1.19;100.00;96008.56;4953096;28;20602;-71
2022/11/25 04:54:49;;;;;;;6.18;2.50;;;3.20;82.20;;;1.16;100.00;96011.44;4969537;28;20049;-71
2022/11/25 04:57:15;;;;;;;3.22;2.03;;;3.20;82.30;;;1.18;100.00;96014.69;4968422;28;20319;-72
2022/11/25 04:59:42;;;;;;;4.40;2.13;;;3.20;82.40;;;1.19;100.00;96011.16;4963643;28;20049;-69
2022/11/25 05:02:18;;;;;;;5.72;2.25;;;3.20;82.30;;;1.17;100.00;96013.06;4944304;28;20038;-70
2022/11/25 05:04:45;;;;;;;3.83;2.17;;;3.10;82.20;;;1.16;100.00;96016.59;4961617;28;20641;-71
2022/11/25 05:07:11;;;;;;;5.18;2.35;;;3.10;82.10;;;1.15;100.00;96017.56;4963536;28;20030;-66
2022/11/25 05:09:37;;;;;;;4.20;2.05;;;3.10;82.00;;;1.15;100.00;96011.56;4963459;28;20042;-67
2022/11/25 05:12:05;;;;;;;5.65;1.90;;;3.10;82.20;;;1.16;100.00;96019.19;4967213;28;20160;-65
2022/11/25 05:14:31;;;;;;;4.45;1.90;;;3.10;82.40;;;1.14;100.00;96015.09;4962475;28;20588;-69
2022/11/25 05:16:57;;;;;;;3.13;1.60;;;3.10;82.30;;;1.12;100.00;96010.03;4961898;28;20069;-71
2022/11/25 05:19:23;;;;;;;4.40;2.00;;;3.10;82.30;;;1.12;100.00;96010.03;4963971;28;20447;-68
2022/11/25 05:21:49;;;;;;;3.92;1.88;;;3.10;82.20;;;1.10;100.00;96011.94;4949554;28;20383;-68
2022/11/25 05:24:14;;;;;;;4.82;1.90;;;3.00;82.30;;;1.08;100.00;96024.19;4962203;28;20473;-64
2022/11/25 05:26:40;;;;;;;3.75;1.83;;;3.10;82.40;;;1.07;100.00;96017.38;4980985;28;20022;-69
2022/11/25 05:29:06;;;;;;;3.83;2.00;;;3.00;82.20;;;1.06;100.00;96017.53;4996900;28;20022;-69
2022/11/25 05:31:32;;;;;;;3.40;2.20;;;3.00;82.20;;;1.02;100.00;96019.56;5013648;28;20065;-66
2022/11/25 05:34:00;;;;;;;2.88;2.42;;;3.00;82.10;;;1.00;100.00;96018.88;5005628;28;20461;-66
2022/11/25 05:36:26;;;;;;;3.28;1.88;;;2.90;82.10;;;0.96;100.00;96017.50;5005836;28;20036;-67
2022/11/25 05:38:52;;;;;;;3.90;2.15;;;2.90;82.10;;;0.96;100.00;96021.88;5004517;28;20042;-67
2022/11/25 05:41:18;;;;;;;4.72;2.17;;;2.90;82.20;;;0.92;100.00;96023.91;5022004;28;20526;-67
2022/11/25 05:43:44;;;;;;;2.88;2.05;;;2.90;82.20;;;0.91;100.00;96022.25;5007365;28;20134;-65
2022/11/25 05:46:09;;;;;;;4.53;2.40;;;2.80;82.30;;;0.90;100.00;96020.59;5005194;28;20636;-66
2022/11/25 05:48:35;;;;;;;3.13;2.00;;;2.80;82.30;;;0.87;100.00;96023.44;4993858;28;20494;-63
2022/11/25 05:51:02;;;;;;;3.80;2.10;;;2.80;82.30;;;0.80;100.00;96012.81;4986983;28;20649;-63
2022/11/25 05:53:28;;;;;;;3.08;1.88;;;2.80;82.50;;;0.83;100.00;96019.50;4984399;28;20041;-63
2022/11/25 05:55:58;;;;;;;2.90;1.90;;;2.80;82.60;;;0.82;100.00;96018.66;5001833;28;20133;-64
2022/11/25 05:58:24;;;;;;;4.72;2.03;;;2.80;82.60;;;0.80;100.00;96035.28;5000731;28;20073;-63
2022/11/25 06:00:50;;;;;;;3.22;1.55;;;2.70;82.70;;;0.80;100.00;96033.53;5001671;28;20069;-63
2022/11/25 06:03:16;;;;;;;3.33;1.70;;;2.70;82.70;;;0.80;100.00;96035.28;4985574;28;20046;-63
2022/11/25 06:05:42;;;;;;;2.13;1.33;;;2.70;82.70;;;0.78;100.00;96032.00;4985884;28;20034;-63
2022/11/25 06:08:08;;;;;;;4.13;1.50;;;2.80;82.80;;;0.76;100.00;96023.56;4985054;28;20047;-63
2022/11/25 06:10:33;;;;;;;2.85;1.52;;;2.80;82.90;;;0.82;100.00;96039.38;4985254;28;20070;-63
2022/11/25 06:12:59;;;;;;;4.30;1.85;;;2.80;82.80;;;0.83;100.00;96040.19;4987306;28;20065;-64
2022/11/25 06:15:25;;;;;;;3.15;1.80;;;2.90;82.90;;;0.88;100.00;96044.03;5001894;28;20070;-64
2022/11/25 06:17:51;;;;;;;8.45;2.20;;;2.90;82.70;;;0.89;100.00;96047.44;4986614;28;20034;-64
2022/11/25 06:20:16;;;;;;;4.07;1.83;;;2.90;82.70;;;0.89;100.00;96045.66;5001745;28;20080;-63
2022/11/25 06:22:42;;;;;;;3.70;1.80;;;2.90;82.70;;;0.92;100.00;96044.63;4986844;28;20053;-64
2022/11/25 06:25:08;;;;;;;4.38;2.50;;;3.00;82.80;;;0.95;100.00;96043.53;5014064;28;20038;-69
2022/11/25 06:27:34;;;;;;;5.05;2.10;;;3.00;82.80;;;0.95;100.00;96039.16;5021071;28;20053;-65
2022/11/25 06:30:00;;;;;;;4.90;2.38;;;3.00;82.70;;;0.98;100.00;96033.72;5004572;28;20563;-66
2022/11/25 06:32:26;;;;;;;8.32;2.33;;;3.00;82.80;;;0.99;100.00;96025.00;5004280;28;20429;-66
2022/11/25 06:34:52;;;;;;;3.70;1.75;;;3.00;82.60;;;1.00;100.00;96024.06;5004704;28;20042;-66
2022/11/25 06:37:18;;;;;;;6.38;2.13;;;3.10;82.80;;;1.03;100.00;96041.91;5005390;28;20521;-65
2022/11/25 06:39:44;;;;;;;4.10;2.25;;;3.10;82.70;;;1.06;100.00;96036.47;5020663;28;20046;-66
2022/11/25 06:42:10;;;;;;;5.18;2.53;;;3.10;82.60;;;1.10;100.00;96035.25;5005186;28;20053;-63
2022/11/25 06:44:36;;;;;;;4.70;2.30;;;3.10;82.50;;;1.13;100.00;96016.88;4988260;28;20402;-63
2022/11/25 06:47:01;;;;;;;5.03;2.83;;;3.20;82.60;;;1.15;100.00;96004.59;5006390;28;20053;-63
2022/11/25 06:49:28;;;;;;;4.90;2.53;;;3.20;82.60;;;1.17;100.00;96018.25;5003799;28;20038;-63
2022/11/25 06:51:54;;;;;;;4.45;2.20;;;3.20;82.30;;;1.21;100.00;96011.03;5021225;28;20036;-64
2022/11/25 06:54:20;;;;;;;7.20;2.58;;;3.20;82.30;;;1.19;100.00;96015.53;5006010;28;20034;-63
2022/11/25 06:56:50;;;;;;;5.65;3.13;;;3.30;82.20;;;1.20;100.00;96020.56;4987756;28;20152;-64
2022/11/25 06:59:17;;;;;;;6.40;2.67;;;3.30;82.10;;;1.21;100.00;96027.38;5019687;28;20046;-64
2022/11/25 07:01:43;;;;;;;6.05;3.00;;;3.30;81.90;;;1.23;100.00;96029.84;5020937;28;20168;-65
2022/11/25 07:04:09;;;;;;;6.30;2.58;;;3.30;82.00;;;1.26;100.00;96028.75;5021301;28;20022;-65
2022/11/25 07:06:34;;;;;;;6.35;2.67;;;3.40;81.90;;;1.27;100.00;96038.16;5003895;28;20072;-65
2022/11/25 07:09:01;;;;;;;5.78;2.53;;;3.40;81.90;;;1.32;100.00;96041.16;5003573;28;20034;-64
2022/11/25 07:11:29;;;;;;;4.55;2.03;;;3.50;81.90;;;1.38;100.00;96040.66;5004213;28;20114;-65
2022/11/25 07:13:58;;;;;;;4.45;2.65;;;3.60;82.00;;;1.44;100.00;96047.88;5020819;28;20391;-64
2022/11/25 07:16:24;;;;;;;3.38;1.88;;;3.60;81.90;;;1.45;100.00;96042.56;5020296;28;20049;-63
2022/11/25 07:18:50;;;;;;;4.85;2.00;;;3.70;81.60;;;1.53;100.00;96049.66;5019716;28;20057;-63
2022/11/25 07:21:21;;;;;;;3.88;1.70;;;3.80;81.60;;;1.60;100.00;96050.78;4988015;28;20441;-64
2022/11/25 07:23:48;;;;;;;2.97;1.65;;;3.90;81.70;;;1.66;100.00;96052.81;5020877;28;20497;-64
2022/11/25 07:26:20;;;;;;;5.95;1.77;;;3.90;81.80;;;1.70;100.00;96050.78;5000967;28;20506;-64
2022/11/25 07:28:47;;;;;;;5.28;2.38;;;3.90;81.90;;;1.75;100.00;96054.59;4983219;28;20045;-64
2022/11/25 07:31:20;;;;;;;4.47;2.42;;;3.90;81.90;;;1.79;100.00;96049.94;4984610;28;20446;-64
2022/11/25 07:33:46;;;;;;;4.38;2.50;;;4.00;81.90;;;1.82;100.00;96055.72;4985826;28;20502;-64
2022/11/25 07:36:13;;;;;;;3.47;2.28;;;4.10;82.10;;;1.87;100.00;96049.28;4984380;28;20031;-64
2022/11/25 07:38:39;;;;;;;5.03;2.13;;;4.10;82.10;;;1.91;100.00;96042.88;4999758;28;20038;-64
2022/11/25 07:41:06;;;;;;;6.30;2.05;;;4.20;81.80;;;1.95;100.00;96045.03;4984419;28;20035;-64
2022/11/25 07:43:32;;;;;;;5.28;1.60;;;4.10;81.30;;;1.98;100.00;96049.13;5000465;28;20045;-63
2022/11/25 07:46:43;;;;;;;5.80;2.17;;;4.20;81.10;;;2.04;100.00;96053.81;5000485;28;20042;-64
2022/11/25 07:49:11;;;;;;;7.57;2.00;;;4.20;80.90;;;2.05;100.00;96051.06;4981557;28;20030;-63
2022/11/25 07:52:03;;;;;;;5.70;2.08;;;4.20;80.50;;;2.09;100.00;96055.00;5012831;28;20046;-65
2022/11/25 07:54:29;;;;;;;6.70;2.40;;;4.40;80.60;;;2.13;100.00;96056.38;4997648;28;20053;-63
2022/11/25 07:56:55;;;;;;;4.55;2.22;;;4.40;80.50;;;2.19;100.00;96057.59;4999772;28;20038;-65
2022/11/25 07:59:21;;;;;;;7.45;2.47;;;4.60;80.80;;;2.27;100.00;96060.34;4999418;28;20042;-63
2022/11/25 08:01:49;;;;;;;7.35;2.60;;;4.70;80.10;;;2.34;100.00;96069.19;5000621;28;20042;-63
2022/11/25 08:04:15;;;;;;;8.07;2.28;;;4.80;79.40;;;2.45;100.00;96074.22;5000901;28;20564;-62
2022/11/25 08:06:43;;;;;;;12.23;6.38;;;5.00;79.40;;;2.57;100.00;96087.88;5000146;28;20042;-63
2022/11/25 08:09:10;;;;;;;15.38;4.50;;;5.10;80.10;;;2.64;100.00;96086.34;4999169;28;20035;-64
2022/11/25 08:11:36;;;;;;;13.75;7.05;;;5.20;79.40;;;2.77;100.00;96083.44;4983858;28;20043;-65
2022/11/25 08:14:02;;;;;;;27.90;18.05;;;5.30;79.30;;;2.83;100.00;96072.50;4985379;28;20064;-64
2022/11/25 08:16:31;;;;;;;11.40;7.03;;;5.40;79.00;;;2.92;100.00;96081.19;4983642;28;20058;-64
2022/11/25 08:18:59;;;;;;;8.05;3.38;;;5.40;78.40;;;2.98;100.00;96078.06;4982448;28;20612;-64
2022/11/25 08:21:25;;;;;;;4.72;2.33;;;5.40;78.00;;;3.04;100.00;96070.50;4999570;28;20407;-64
2022/11/25 08:23:51;;;;;;;3.78;2.15;;;5.50;77.80;;;3.06;100.00;96068.56;4984754;28;20043;-63
2022/11/25 08:26:31;;;;;;;5.35;2.42;;;5.40;77.40;;;3.07;100.00;96078.00;5002710;28;20076;-64
2022/11/25 08:28:57;;;;;;;7.32;2.50;;;5.40;77.20;;;3.10;100.00;96070.88;5018468;28;20045;-64
2022/11/25 08:31:29;;;;;;;7.47;2.60;;;5.40;77.80;;;3.11;100.00;96069.91;5019294;28;20037;-64
2022/11/25 08:33:55;;;;;;;4.95;2.92;;;5.40;77.90;;;3.14;100.00;96075.63;5003542;28;20100;-66
2022/11/25 08:36:21;;;;;;;8.50;2.97;;;5.40;77.50;;;3.17;100.00;96079.72;5019358;28;20046;-64
2022/11/25 08:38:49;;;;;;;6.07;2.80;;;5.40;77.20;;;3.19;100.00;96081.25;5003520;28;20121;-64
2022/11/25 08:41:20;;;;;;;6.38;2.75;;;5.50;77.50;;;3.21;100.00;96081.09;5019393;28;20129;-64
2022/11/25 08:43:46;;;;;;;5.85;3.90;;;5.50;77.00;;;3.27;100.00;96090.91;4987213;28;20871;-64
2022/11/25 08:46:15;;;;;;;7.93;3.92;;;5.60;77.20;;;3.34;100.00;96098.00;5019315;28;20060;-65
2022/11/25 08:48:41;;;;;;;4.57;2.60;;;5.80;77.20;;;3.38;100.00;96093.31;5017874;28;20038;-64
2022/11/25 08:51:12;;;;;;;3.95;2.40;;;5.90;76.10;;;3.49;100.00;96107.91;5002530;28;20766;-65
2022/11/25 08:53:38;;;;;;;6.03;2.60;;;6.10;75.70;;;3.56;100.00;96119.38;5019017;28;20099;-64
2022/11/25 08:56:05;;;;;;;5.20;2.90;;;6.20;75.40;;;3.63;100.00;96110.84;5007018;28;20034;-64
2022/11/25 08:58:31;;;;;;;5.45;2.95;;;6.40;74.70;;;3.74;100.00;96117.63;4989673;28;20037;-64
2022/11/25 09:00:57;;;;;;;3.92;2.58;;;6.50;74.30;;;3.85;100.00;96121.81;5006108;28;20042;-64
2022/11/25 09:03:23;;;;;;;5.32;2.70;;;6.60;73.90;;;3.92;100.00;96128.06;5023170;28;20061;-66
2022/11/25 09:05:49;;;;;;;7.47;3.78;;;6.70;73.50;;;4.05;100.00;96119.88;5006408;28;20111;-67
2022/11/25 09:08:15;;;;;;;9.52;4.18;;;6.90;73.20;;;4.18;100.00;96134.19;5021942;28;20493;-63
2022/11/25 09:10:40;;;;;;;8.90;4.80;;;7.20;73.20;;;4.30;100.00;96134.78;5004923;28;20065;-65
2022/11/25 09:13:09;;;;;;;6.18;4.03;;;7.40;73.20;;;4.43;100.00;96137.00;5022908;28;20121;-63
2022/11/25 09:15:35;;;;;;;7.90;4.13;;;7.60;72.60;;;4.58;100.00;96135.50;5006094;28;20037;-64
2022/11/25 09:18:04;;;;;;;6.03;4.05;;;7.60;72.00;;;4.69;100.00;96129.22;5021905;28;20061;-63
2022/11/25 09:20:30;;;;;;;5.15;3.78;;;7.90;71.00;;;4.84;100.00;96136.34;5022192;28;20839;-62
2022/11/25 09:22:58;;;;;;;7.55;4.13;;;8.10;70.40;;;4.99;100.00;96143.63;5005492;28;20056;-65
2022/11/25 09:25:24;;;;;;;5.45;4.00;;;8.40;69.70;;;5.16;100.00;96137.50;4989418;28;20034;-64
2022/11/25 09:27:59;;;;;;;5.45;3.95;;;8.80;68.00;;;5.36;100.00;96131.09;5021509;28;20084;-65
2022/11/25 09:30:25;;;;;;;7.97;4.13;;;9.50;66.00;;;5.54;100.00;96131.03;5021254;28;20046;-63
2022/11/25 09:32:53;;;;;;;4.88;3.55;;;9.60;64.10;;;5.73;100.00;96129.97;5005165;28;20045;-63
2022/11/25 09:35:26;;;;;;;8.32;4.28;;;9.80;63.50;;;5.91;100.00;96135.94;5005792;28;20544;-65
2022/11/25 09:37:52;;;;;;;8.13;4.70;;;9.80;63.50;;;6.10;100.00;96130.41;5020708;28;20053;-65
2022/11/25 09:40:25;;;;;;;7.57;4.25;;;9.90;63.20;;;6.29;100.00;96134.53;5007086;28;20391;-64
2022/11/25 09:49:15;;;;;;;6.10;2.63;;;12.70;54.90;;;7.30;96.96;96134.97;5018170;28;20155;-63
2022/11/25 09:52:04;;;;;;;4.13;2.72;;;15.90;47.00;;;7.90;97.76;96131.78;4989192;28;20116;-64
2022/11/25 09:54:34;;;;;;;4.40;2.65;;;18.40;41.20;;;8.52;100.00;96126.53;5021583;28;20585;-63
2022/11/25 09:57:19;;;;;;;5.10;2.58;;;19.20;37.30;;;9.21;89.80;96126.41;5022038;28;20038;-64
2022/11/25 10:00:05;;;;;;;4.10;2.22;;;21.10;34.20;;;9.95;85.11;96118.50;5004622;28;20039;-65
2022/11/25 10:02:40;;;;;;;3.95;2.42;;;22.10;31.90;;;10.53;87.21;96120.16;5005555;28;20038;-63
2022/11/25 10:05:22;;;;;;;3.65;2.33;;;23.10;30.50;;;11.17;81.30;96114.03;5004801;28;20746;-65
2022/11/25 10:07:55;;;;;;;5.20;2.72;;;24.30;29.00;;;11.69;87.89;96120.59;5021085;28;20030;-64
2022/11/25 10:10:27;;;;;;;6.80;4.50;;;25.10;27.80;;;12.28;81.16;96115.63;5004660;28;20054;-64
2022/11/25 10:12:56;;;;;;;2.95;1.88;;;25.70;26.80;;;12.88;86.74;96111.22;5020816;28;20046;-64
2022/11/25 10:15:33;;;;;;;2.80;1.85;;;26.30;25.90;;;13.45;74.58;96113.25;5021273;28;20112;-64
2022/11/25 10:18:25;;;;;;;2.80;1.88;;;26.90;24.20;;;14.01;62.45;96104.72;5004831;28;20041;-64
2022/11/25 10:20:52;;;;;;;3.58;1.90;;;26.70;23.80;;;14.42;77.67;96106.16;5019955;28;20462;-65
2022/11/25 10:23:33;;;;;;;4.93;1.88;;;27.30;23.60;;;14.80;72.13;96108.00;5004967;28;20125;-65
2022/11/25 10:26:14;;;;;;;3.60;1.98;;;27.30;23.30;;;15.25;59.20;96100.69;5019453;28;20034;-64
2022/11/25 10:28:51;;;;;;;3.35;1.98;;;27.10;23.70;;;15.49;63.55;96101.69;4984943;28;20120;-65
2022/11/25 10:31:19;;;;;;;3.50;1.98;;;26.40;24.40;;;15.64;65.23;96106.66;4969828;28;20705;-64
2022/11/25 10:33:48;;;;;;;3.00;1.55;;;25.80;25.50;;;15.71;63.11;96100.25;4969438;28;20045;-65
2022/11/25 10:36:20;;;;;;;3.28;1.85;;;25.10;26.40;;;15.66;56.65;96096.66;4969167;28;20043;-65
2022/11/25 10:39:04;;;;;;;3.58;1.92;;;23.70;27.40;;;15.52;52.74;96085.34;4968242;28;20033;-65